Time;durP1;ratioP1;P1;durP2;ratioP2;P2;SDS_P1;SDS_P2;PMS_P1;PMS_P2;Temp;Humidity;BMP_temperature;BMP_pressure;BME280_temperature;BME280_humidity;BME280_pressure;Samples;Min_cycle;Max_cycle;Signal;HPM_P1;HPM_P2
2021/08/22 00:00:57;;;;;;;4.80;3.83;;;;;;;;;;5098577;28;20230;-63
2021/08/22 00:03:25;;;;;;;5.63;4.00;;;;;;;;;;5098859;28;20302;-63
2021/08/22 00:05:54;;;;;;;5.50;4.50;;;;;;;;;;5098352;28;20211;-63
2021/08/22 00:08:23;;;;;;;5.73;4.00;;;;;;;;;;5098886;28;20283;-63
2021/08/22 00:10:51;;;;;;;4.83;3.87;;;;;;;;;;5105354;28;20590;-61
2021/08/22 00:13:19;;;;;;;5.03;3.90;;;;;;;;;;5118972;27;20207;-61
2021/08/22 00:15:47;;;;;;;5.23;4.53;;;;;;;;;;5118700;28;20582;-61
2021/08/22 00:18:16;;;;;;;6.50;4.07;;;;;;;;;;5118871;28;20215;-61
2021/08/22 00:20:43;;;;;;;5.33;3.90;;;;;;;;;;5118685;28;20232;-61
2021/08/22 00:23:11;;;;;;;8.67;4.00;;;;;;;;;;5118462;28;20208;-61
2021/08/22 00:25:41;;;;;;;6.73;4.00;;;;;;;;;;5118544;27;20690;-62
2021/08/22 00:28:09;;;;;;;5.83;3.70;;;;;;;;;;5102616;28;20212;-61
2021/08/22 00:30:37;;;;;;;5.40;3.80;;;;;;;;;;5098470;28;20333;-62
2021/08/22 00:33:05;;;;;;;5.00;4.10;;;;;;;;;;5098300;28;20216;-61
2021/08/22 00:35:33;;;;;;;6.40;4.10;;;;;;;;;;5097899;28;20236;-62
2021/08/22 00:38:01;;;;;;;4.03;3.63;;;;;;;;;;5098472;28;20213;-62
2021/08/22 00:40:29;;;;;;;5.10;3.87;;;;;;;;;;5097678;28;20231;-62
2021/08/22 00:42:58;;;;;;;5.07;3.57;;;;;;;;;;5098102;28;20203;-62
2021/08/22 00:45:26;;;;;;;6.23;3.93;;;;;;;;;;5097847;28;20719;-62
2021/08/22 00:47:56;;;;;;;5.60;4.10;;;;;;;;;;5102255;28;20212;-62
2021/08/22 00:50:24;;;;;;;4.73;3.63;;;;;;;;;;5106482;28;20209;-61
2021/08/22 00:52:53;;;;;;;4.23;3.83;;;;;;;;;;5097844;28;20209;-62
2021/08/22 00:55:22;;;;;;;5.27;3.97;;;;;;;;;;5097488;28;20234;-62
2021/08/22 00:57:50;;;;;;;4.53;3.60;;;;;;;;;;5097855;28;20291;-61
2021/08/22 01:00:20;;;;;;;6.97;3.87;;;;;;;;;;5097950;28;20225;-61
2021/08/22 01:02:51;;;;;;;4.90;3.80;;;;;;;;;;5097538;28;20589;-62
2021/08/22 01:05:23;;;;;;;4.10;3.70;;;;;;;;;;5097730;28;20283;-61
2021/08/22 01:07:55;;;;;;;5.93;4.00;;;;;;;;;;5097665;28;20218;-63
2021/08/22 01:10:25;;;;;;;5.67;3.10;;;;;;;;;;5097614;28;20205;-63
2021/08/22 01:12:56;;;;;;;4.23;2.93;;;;;;;;;;5097862;28;20219;-63
2021/08/22 01:15:25;;;;;;;4.63;3.50;;;;;;;;;;5097856;28;20231;-64
2021/08/22 01:17:55;;;;;;;3.43;3.07;;;;;;;;;;5097853;28;20291;-63
2021/08/22 01:20:28;;;;;;;3.50;3.20;;;;;;;;;;5097308;28;20238;-63
2021/08/22 01:22:56;;;;;;;4.83;2.60;;;;;;;;;;5097481;28;20296;-63
2021/08/22 01:25:24;;;;;;;3.23;2.40;;;;;;;;;;5103462;28;20223;-63
2021/08/22 01:27:53;;;;;;;3.13;2.50;;;;;;;;;;5097471;28;20579;-63
2021/08/22 01:30:22;;;;;;;2.60;2.37;;;;;;;;;;5097718;28;20205;-63
2021/08/22 01:32:51;;;;;;;3.93;2.90;;;;;;;;;;5097536;28;20205;-63
2021/08/22 01:35:21;;;;;;;4.37;2.80;;;;;;;;;;5097527;28;20228;-63
2021/08/22 01:37:50;;;;;;;3.03;2.37;;;;;;;;;;5097451;28;20235;-63
2021/08/22 01:40:19;;;;;;;2.50;2.30;;;;;;;;;;5097063;28;20603;-63
2021/08/22 01:42:47;;;;;;;3.00;2.60;;;;;;;;;;5097424;28;20212;-63
2021/08/22 01:45:17;;;;;;;2.67;2.47;;;;;;;;;;5097471;28;20270;-62
2021/08/22 01:47:46;;;;;;;4.50;2.40;;;;;;;;;;5103410;28;20199;-66
2021/08/22 01:50:17;;;;;;;2.83;2.13;;;;;;;;;;5111016;28;20293;-66
2021/08/22 01:52:45;;;;;;;4.60;2.70;;;;;;;;;;5101059;28;20205;-64
2021/08/22 01:55:13;;;;;;;4.47;2.53;;;;;;;;;;5101036;28;20253;-64
2021/08/22 01:57:43;;;;;;;2.60;2.40;;;;;;;;;;5101301;28;20210;-64
2021/08/22 02:00:12;;;;;;;2.00;1.83;;;;;;;;;;5101174;28;20225;-64
2021/08/22 02:02:44;;;;;;;2.17;1.97;;;;;;;;;;5100996;28;20288;-64
2021/08/22 02:05:13;;;;;;;5.10;2.07;;;;;;;;;;5100798;28;20227;-64
2021/08/22 02:07:43;;;;;;;2.00;1.90;;;;;;;;;;5101113;28;20216;-64
2021/08/22 02:10:15;;;;;;;2.20;2.00;;;;;;;;;;5100324;28;20209;-64
2021/08/22 02:12:45;;;;;;;2.07;1.90;;;;;;;;;;5100678;28;20206;-64
2021/08/22 02:15:14;;;;;;;2.83;1.90;;;;;;;;;;5100484;28;20224;-64
2021/08/22 02:17:43;;;;;;;1.90;1.80;;;;;;;;;;5100526;28;20204;-64
2021/08/22 02:20:11;;;;;;;3.67;2.17;;;;;;;;;;5100448;28;20235;-65
2021/08/22 02:22:42;;;;;;;2.33;2.13;;;;;;;;;;5100428;28;20292;-64
2021/08/22 02:25:11;;;;;;;1.90;1.80;;;;;;;;;;5106446;28;20235;-64
2021/08/22 02:27:40;;;;;;;2.53;2.20;;;;;;;;;;5100793;28;20209;-64
2021/08/22 02:30:08;;;;;;;2.80;2.30;;;;;;;;;;5100404;28;20632;-64
2021/08/22 02:32:37;;;;;;;2.93;2.10;;;;;;;;;;5100375;28;20231;-64
2021/08/22 02:35:05;;;;;;;2.80;2.40;;;;;;;;;;5100557;28;20223;-64
2021/08/22 02:37:33;;;;;;;2.57;2.37;;;;;;;;;;5100519;28;20655;-64
2021/08/22 02:40:01;;;;;;;2.40;2.10;;;;;;;;;;5100007;28;20574;-64
2021/08/22 02:42:30;;;;;;;3.10;2.13;;;;;;;;;;5100118;28;20725;-65
2021/08/22 02:44:58;;;;;;;3.17;2.00;;;;;;;;;;5100356;28;20225;-64
2021/08/22 02:47:26;;;;;;;2.27;2.07;;;;;;;;;;5100419;28;20384;-65
2021/08/22 02:49:54;;;;;;;2.97;2.37;;;;;;;;;;5112649;28;20213;-65
2021/08/22 02:52:22;;;;;;;3.60;2.27;;;;;;;;;;5099993;28;20205;-64
2021/08/22 02:54:50;;;;;;;2.63;2.27;;;;;;;;;;5099873;28;20230;-65
2021/08/22 02:57:18;;;;;;;3.87;2.33;;;;;;;;;;5099868;28;20205;-64
2021/08/22 02:59:47;;;;;;;1.93;1.73;;;;;;;;;;5100098;28;20571;-64
2021/08/22 03:02:16;;;;;;;2.33;2.13;;;;;;;;;;5099815;28;20222;-64
2021/08/22 03:04:44;;;;;;;2.47;2.10;;;;;;;;;;5099640;28;20224;-64
2021/08/22 03:07:12;;;;;;;2.63;2.17;;;;;;;;;;5099555;28;20211;-65
2021/08/22 03:09:40;;;;;;;3.77;2.17;;;;;;;;;;5099461;28;20684;-65
2021/08/22 03:12:08;;;;;;;2.87;2.27;;;;;;;;;;5099914;28;20209;-64
2021/08/22 03:14:36;;;;;;;2.27;2.07;;;;;;;;;;5099805;28;20289;-65
2021/08/22 03:17:05;;;;;;;2.77;2.10;;;;;;;;;;5099395;28;20202;-65
2021/08/22 03:19:33;;;;;;;2.37;2.17;;;;;;;;;;5099705;28;20211;-65
2021/08/22 03:22:01;;;;;;;1.87;1.77;;;;;;;;;;5099081;28;20239;-64
2021/08/22 03:24:29;;;;;;;1.80;1.70;;;;;;;;;;5104403;28;20216;-64
2021/08/22 03:26:57;;;;;;;2.43;2.23;;;;;;;;;;5100690;28;20213;-64
2021/08/22 03:29:25;;;;;;;2.60;2.40;;;;;;;;;;5099540;28;20216;-64
2021/08/22 03:31:53;;;;;;;2.97;2.40;;;;;;;;;;5099038;28;20198;-64
2021/08/22 03:34:22;;;;;;;3.00;2.50;;;;;;;;;;5099296;28;20244;-65
2021/08/22 03:36:50;;;;;;;4.03;2.63;;;;;;;;;;5099392;28;20292;-65
2021/08/22 03:39:18;;;;;;;3.73;2.57;;;;;;;;;;5098729;28;20216;-65
2021/08/22 03:41:46;;;;;;;6.37;3.03;;;;;;;;;;5098832;28;20700;-65
2021/08/22 03:44:14;;;;;;;3.93;2.90;;;;;;;;;;5098745;28;20225;-64
2021/08/22 03:46:42;;;;;;;5.63;3.70;;;;;;;;;;5098992;28;20209;-65
2021/08/22 03:49:10;;;;;;;3.80;2.47;;;;;;;;;;5112708;28;20209;-64
2021/08/22 03:51:39;;;;;;;4.80;2.57;;;;;;;;;;5098993;28;20217;-65
2021/08/22 03:54:07;;;;;;;4.13;2.60;;;;;;;;;;5098591;28;20221;-65
2021/08/22 03:56:35;;;;;;;2.53;2.33;;;;;;;;;;5098920;28;20219;-65
2021/08/22 03:59:07;;;;;;;2.63;2.40;;;;;;;;;;5105029;28;20581;-65
2021/08/22 04:01:35;;;;;;;2.70;2.20;;;;;;;;;;5118932;28;20216;-65
2021/08/22 04:04:05;;;;;;;3.30;3.00;;;;;;;;;;5115219;28;20217;-64
2021/08/22 04:06:33;;;;;;;3.80;2.90;;;;;;;;;;5119137;28;20263;-65
2021/08/22 04:09:03;;;;;;;4.10;2.53;;;;;;;;;;5117891;28;20662;-65
2021/08/22 04:11:31;;;;;;;5.03;2.60;;;;;;;;;;5118773;28;20311;-65
2021/08/22 04:13:59;;;;;;;3.20;2.90;;;;;;;;;;5118652;27;20300;-65
2021/08/22 04:16:27;;;;;;;2.50;2.30;;;;;;;;;;5118912;28;20204;-65
2021/08/22 04:18:55;;;;;;;2.63;2.40;;;;;;;;;;5118781;28;20213;-64
2021/08/22 04:21:23;;;;;;;3.73;2.60;;;;;;;;;;5118401;28;20226;-64
2021/08/22 04:23:51;;;;;;;3.00;2.33;;;;;;;;;;5118174;27;20221;-65
2021/08/22 04:26:20;;;;;;;2.77;2.47;;;;;;;;;;5097897;28;20214;-65
2021/08/22 04:28:48;;;;;;;2.60;2.30;;;;;;;;;;5098555;28;20206;-64
2021/08/22 04:31:16;;;;;;;3.13;2.37;;;;;;;;;;5098229;28;20242;-65
2021/08/22 04:33:44;;;;;;;2.37;1.80;;;;;;;;;;5098289;28;20229;-65
2021/08/22 04:36:12;;;;;;;2.37;2.13;;;;;;;;;;5097899;28;20217;-65
2021/08/22 04:38:40;;;;;;;2.63;2.50;;;;;;;;;;5098110;28;20208;-65
2021/08/22 04:41:08;;;;;;;2.63;2.23;;;;;;;;;;5098091;28;20209;-65
2021/08/22 04:43:37;;;;;;;2.57;2.17;;;;;;;;;;5098055;28;20208;-65
2021/08/22 04:46:05;;;;;;;2.67;2.37;;;;;;;;;;5098092;28;20209;-65
2021/08/22 04:48:33;;;;;;;2.23;2.03;;;;;;;;;;5108078;28;20205;-64
2021/08/22 04:51:02;;;;;;;12.73;2.50;;;;;;;;;;5101353;28;20661;-65
2021/08/22 04:53:30;;;;;;;3.03;2.73;;;;;;;;;;5098295;28;20231;-65
2021/08/22 04:55:57;;;;;;;3.33;2.53;;;;;;;;;;5098118;28;20203;-65
2021/08/22 04:58:26;;;;;;;2.27;2.07;;;;;;;;;;5098092;28;20208;-63
2021/08/22 05:00:55;;;;;;;5.87;2.93;;;;;;;;;;5097722;28;20573;-65
2021/08/22 05:03:24;;;;;;;252.53;151.20;;;;;;;;;;5097758;28;20230;-64
2021/08/22 05:05:52;;;;;;;447.33;286.37;;;;;;;;;;5097582;28;20672;-63
2021/08/22 05:08:21;;;;;;;898.30;420.67;;;;;;;;;;5097752;28;20283;-63
2021/08/22 05:10:49;;;;;;;635.10;323.57;;;;;;;;;;5097628;28;20220;-64
2021/08/22 05:13:17;;;;;;;75.43;38.73;;;;;;;;;;5097650;28;20224;-63
2021/08/22 05:15:45;;;;;;;42.70;27.67;;;;;;;;;;5097569;28;20688;-64
2021/08/22 05:18:15;;;;;;;13.57;9.17;;;;;;;;;;5101396;28;20223;-64
2021/08/22 05:20:43;;;;;;;6.03;4.00;;;;;;;;;;5106664;28;20236;-64
2021/08/22 05:23:11;;;;;;;10.93;6.00;;;;;;;;;;5111795;28;20226;-64
2021/08/22 05:25:38;;;;;;;13.23;5.70;;;;;;;;;;5111328;28;20217;-64
2021/08/22 05:28:06;;;;;;;6.90;4.23;;;;;;;;;;5110703;28;20226;-64
2021/08/22 05:30:34;;;;;;;9.00;4.27;;;;;;;;;;5110916;28;20210;-64
2021/08/22 05:33:04;;;;;;;6.90;3.80;;;;;;;;;;5112177;28;20197;-64
2021/08/22 05:35:33;;;;;;;9.07;5.80;;;;;;;;;;5111767;28;20568;-63
2021/08/22 05:38:01;;;;;;;10.13;5.63;;;;;;;;;;5113973;28;20582;-64
2021/08/22 05:40:29;;;;;;;6.60;5.17;;;;;;;;;;5112211;28;20207;-64
2021/08/22 05:42:57;;;;;;;8.63;5.23;;;;;;;;;;5112547;28;20224;-63
2021/08/22 05:45:25;;;;;;;8.03;4.80;;;;;;;;;;5112102;28;20314;-63
2021/08/22 05:47:53;;;;;;;6.13;4.60;;;;;;;;;;5110065;28;20192;-63
2021/08/22 05:50:21;;;;;;;6.30;3.57;;;;;;;;;;5111655;28;20200;-64
2021/08/22 05:52:50;;;;;;;5.57;3.70;;;;;;;;;;5107519;28;20204;-64
2021/08/22 05:55:19;;;;;;;3.23;2.37;;;;;;;;;;5108642;28;20270;-64
2021/08/22 05:57:47;;;;;;;3.70;2.67;;;;;;;;;;5106541;28;20720;-64
2021/08/22 06:00:15;;;;;;;3.30;2.70;;;;;;;;;;5109024;28;20200;-65
2021/08/22 06:02:44;;;;;;;5.47;3.40;;;;;;;;;;5108427;28;20633;-64
2021/08/22 06:05:12;;;;;;;6.53;3.43;;;;;;;;;;5111010;27;20219;-64
2021/08/22 06:07:40;;;;;;;6.67;2.80;;;;;;;;;;5109809;28;20210;-64
2021/08/22 06:10:10;;;;;;;3.37;2.97;;;;;;;;;;5109585;28;20196;-64
2021/08/22 06:12:38;;;;;;;4.27;3.13;;;;;;;;;;5108813;28;20196;-63
2021/08/22 06:15:06;;;;;;;5.83;2.63;;;;;;;;;;5099496;28;20763;-64
2021/08/22 06:17:34;;;;;;;4.83;2.40;;;;;;;;;;5099382;28;20197;-64
2021/08/22 06:20:02;;;;;;;4.60;2.90;;;;;;;;;;5099465;28;20650;-64
2021/08/22 06:22:30;;;;;;;2.70;2.10;;;;;;;;;;5099548;28;20225;-64
2021/08/22 06:24:58;;;;;;;4.17;2.60;;;;;;;;;;5102991;28;20279;-64
2021/08/22 06:27:28;;;;;;;3.90;2.70;;;;;;;;;;5107887;28;20574;-64
2021/08/22 06:29:56;;;;;;;2.23;2.03;;;;;;;;;;5112095;28;20956;-64
2021/08/22 06:32:24;;;;;;;4.80;2.50;;;;;;;;;;5108920;28;20205;-63
2021/08/22 06:34:52;;;;;;;2.97;2.30;;;;;;;;;;5109344;28;20216;-63
2021/08/22 06:37:20;;;;;;;3.87;2.03;;;;;;;;;;5108835;28;20198;-63
2021/08/22 06:39:48;;;;;;;3.13;2.37;;;;;;;;;;5106189;28;20203;-64
2021/08/22 06:42:16;;;;;;;3.00;2.43;;;;;;;;;;5108325;28;20235;-64
2021/08/22 06:44:46;;;;;;;3.93;3.23;;;;;;;;;;5105423;28;20223;-63
2021/08/22 06:47:14;;;;;;;3.87;1.90;;;;;;;;;;5109030;28;20199;-64
2021/08/22 06:49:42;;;;;;;3.30;2.00;;;;;;;;;;5111105;27;20611;-63
2021/08/22 06:52:11;;;;;;;2.67;2.30;;;;;;;;;;5110804;28;20200;-64
2021/08/22 06:54:41;;;;;;;3.23;2.40;;;;;;;;;;5111164;28;20221;-64
2021/08/22 06:57:11;;;;;;;2.97;2.23;;;;;;;;;;5111036;28;20200;-64
2021/08/22 06:59:39;;;;;;;3.10;2.30;;;;;;;;;;5109427;28;20196;-64
2021/08/22 07:02:10;;;;;;;3.60;1.87;;;;;;;;;;5099355;28;20288;-65
2021/08/22 07:04:39;;;;;;;2.43;2.23;;;;;;;;;;5098580;28;20227;-65
2021/08/22 07:07:07;;;;;;;6.47;4.07;;;;;;;;;;5098094;28;20236;-65
2021/08/22 07:09:35;;;;;;;5.80;3.57;;;;;;;;;;5099077;28;20217;-65
2021/08/22 07:12:03;;;;;;;3.83;2.70;;;;;;;;;;5098607;28;20214;-65
2021/08/22 07:14:30;;;;;;;4.20;2.50;;;;;;;;;;5097706;28;20715;-66
2021/08/22 07:16:59;;;;;;;2.67;2.40;;;;;;;;;;5098091;28;20209;-65
2021/08/22 07:19:28;;;;;;;3.00;2.50;;;;;;;;;;5099130;28;20206;-65
2021/08/22 07:21:56;;;;;;;2.50;1.90;;;;;;;;;;5098908;28;20241;-65
2021/08/22 07:24:24;;;;;;;2.70;1.63;;;;;;;;;;5103151;28;20222;-67
2021/08/22 07:26:52;;;;;;;2.70;2.13;;;;;;;;;;5100885;28;20701;-65
2021/08/22 07:29:20;;;;;;;4.77;1.93;;;;;;;;;;5099351;28;20576;-66
2021/08/22 07:31:48;;;;;;;5.23;3.10;;;;;;;;;;5099040;28;20211;-66
2021/08/22 07:34:16;;;;;;;3.07;2.17;;;;;;;;;;5098867;27;20219;-66
2021/08/22 07:36:46;;;;;;;3.07;2.00;;;;;;;;;;5099375;28;20211;-66
2021/08/22 07:39:14;;;;;;;2.33;1.70;;;;;;;;;;5098767;28;20207;-67
2021/08/22 07:41:42;;;;;;;2.77;1.67;;;;;;;;;;5099397;28;20218;-68
2021/08/22 07:44:09;;;;;;;4.70;2.00;;;;;;;;;;5097925;28;20235;-66
2021/08/22 07:46:37;;;;;;;2.07;1.80;;;;;;;;;;5106272;28;20203;-66
2021/08/22 07:49:05;;;;;;;2.23;1.97;;;;;;;;;;5118577;28;20211;-66
2021/08/22 07:51:33;;;;;;;2.10;2.00;;;;;;;;;;5099021;28;20208;-66
2021/08/22 07:54:03;;;;;;;3.77;1.70;;;;;;;;;;5098694;28;20230;-65
2021/08/22 07:56:31;;;;;;;1.97;1.60;;;;;;;;;;5098674;28;20208;-66
2021/08/22 07:58:59;;;;;;;3.93;1.70;;;;;;;;;;5098750;28;20304;-66
2021/08/22 08:01:27;;;;;;;2.50;1.60;;;;;;;;;;5098898;28;20213;-72
2021/08/22 08:03:55;;;;;;;5.43;2.30;;;;;;;;;;5098537;28;20240;-68
2021/08/22 08:06:23;;;;;;;2.77;2.00;;;;;;;;;;5108514;28;20262;-68
2021/08/22 08:08:51;;;;;;;2.60;1.83;;;;;;;;;;5111962;28;20205;-68
2021/08/22 08:11:21;;;;;;;2.20;1.90;;;;;;;;;;5098353;28;20202;-68
2021/08/22 08:13:49;;;;;;;3.57;2.60;;;;;;;;;;5097981;28;20223;-64
2021/08/22 08:16:16;;;;;;;3.30;2.03;;;;;;;;;;5098066;28;20205;-64
2021/08/22 08:18:45;;;;;;;2.50;2.30;;;;;;;;;;5098031;28;20730;-63
2021/08/22 08:21:13;;;;;;;2.67;2.30;;;;;;;;;;5108385;28;20233;-64
2021/08/22 08:23:41;;;;;;;2.17;1.97;;;;;;;;;;5106578;28;20229;-64
2021/08/22 08:26:08;;;;;;;2.67;2.00;;;;;;;;;;5110929;27;20564;-64
2021/08/22 08:28:38;;;;;;;3.20;2.23;;;;;;;;;;5106494;28;20637;-64
2021/08/22 08:31:06;;;;;;;3.53;2.23;;;;;;;;;;5106398;28;20237;-63
2021/08/22 08:33:34;;;;;;;2.43;1.97;;;;;;;;;;5105922;28;20591;-63
2021/08/22 08:36:02;;;;;;;2.40;2.10;;;;;;;;;;5106860;28;20192;-63
2021/08/22 08:38:30;;;;;;;3.10;2.17;;;;;;;;;;5097214;28;20319;-64
2021/08/22 08:41:02;;;;;;;2.00;1.67;;;;;;;;;;5097547;28;20602;-63
2021/08/22 08:43:30;;;;;;;2.03;1.80;;;;;;;;;;5097051;28;20668;-64
2021/08/22 08:45:59;;;;;;;5.77;2.20;;;;;;;;;;5097459;28;20205;-64
2021/08/22 08:48:27;;;;;;;1.93;1.60;;;;;;;;;;5101167;28;20211;-63
2021/08/22 08:51:01;;;;;;;2.00;1.77;;;;;;;;;;5108078;28;20202;-64
2021/08/22 08:53:29;;;;;;;4.63;2.30;;;;;;;;;;5106569;28;20327;-63
2021/08/22 08:55:57;;;;;;;2.13;1.77;;;;;;;;;;5110403;28;20667;-63
2021/08/22 08:58:25;;;;;;;3.33;2.00;;;;;;;;;;5108429;28;20207;-64
2021/08/22 09:00:53;;;;;;;4.73;2.10;;;;;;;;;;5106075;28;20204;-64
2021/08/22 09:03:24;;;;;;;4.07;2.10;;;;;;;;;;5107220;28;20210;-64
2021/08/22 09:06:19;;;;;;;2.10;1.87;;;;;;;;;;5107433;28;20313;-64
2021/08/22 09:09:04;;;;;;;2.37;2.17;;;;;;;;;;5097103;28;20207;-63
2021/08/22 09:11:53;;;;;;;2.83;2.10;;;;;;;;;;5103356;28;20639;-63
2021/08/22 09:14:39;;;;;;;2.83;2.00;;;;;;;;;;5097002;28;20729;-64
2021/08/22 09:17:26;;;;;;;3.37;2.90;;;;;;;;;;5096329;28;20283;-64
2021/08/22 09:20:11;;;;;;;2.60;2.40;;;;;;;;;;5109452;28;20290;-62
2021/08/22 09:22:54;;;;;;;3.40;2.10;;;;;;;;;;5115753;28;20202;-62
2021/08/22 09:25:43;;;;;;;3.30;2.13;;;;;;;;;;5111068;28;20232;-62
2021/08/22 09:28:30;;;;;;;2.23;2.03;;;;;;;;;;5096922;28;20210;-62
2021/08/22 09:31:16;;;;;;;2.53;2.17;;;;;;;;;;5097166;28;20584;-62
2021/08/22 09:34:03;;;;;;;2.40;2.20;;;;;;;;;;5104368;28;20225;-62
2021/08/22 09:36:52;;;;;;;3.20;2.10;;;;;;;;;;5117692;28;20207;-62
2021/08/22 09:39:50;;;;;;;2.77;2.10;;;;;;;;;;5117152;28;20209;-62
2021/08/22 09:42:36;;;;;;;2.13;1.90;;;;;;;;;;5117399;28;20289;-62
2021/08/22 09:45:23;;;;;;;3.60;2.30;;;;;;;;;;5115787;28;20818;-62
2021/08/22 09:48:12;;;;;;;2.27;2.07;;;;;;;;;;5117467;28;20287;-63
2021/08/22 09:50:54;;;;;;;4.43;2.57;;;;;;;;;;5103159;28;20239;-62
2021/08/22 09:53:55;;;;;;;4.60;2.60;;;;;;;;;;5096678;28;20288;-63
2021/08/22 09:56:48;;;;;;;2.83;2.37;;;;;;;;;;5105074;28;20204;-66
2021/08/22 09:59:30;;;;;;;2.57;2.37;;;;;;;;;;5105302;28;20200;-66
2021/08/22 10:02:22;;;;;;;2.17;1.97;;;;;;;;;;5082317;28;20196;-66
2021/08/22 10:04:58;;;;;;;2.53;2.30;;;;;;;;;;5094448;28;20231;-66
2021/08/22 10:07:56;;;;;;;2.40;2.07;;;;;;;;;;5097589;28;20197;-67
2021/08/22 10:10:26;;;;;;;3.97;2.47;;;;;;;;;;5048610;28;20561;-65
2021/08/22 10:12:54;;;;;;;4.00;2.43;;;;;;;;;;5097182;28;20639;-65
2021/08/22 10:15:23;;;;;;;4.30;2.77;;;;;;;;;;5114308;28;20246;-65
2021/08/22 10:17:51;;;;;;;3.93;2.67;;;;;;;;;;5100237;28;20565;-64
2021/08/22 10:20:20;;;;;;;3.13;2.53;;;;;;;;;;5100565;28;20786;-64
2021/08/22 10:22:49;;;;;;;3.47;2.50;;;;;;;;;;5100521;28;20692;-65
2021/08/22 10:25:37;;;;;;;4.63;2.87;;;;;;;;;;5106725;28;20233;-63
2021/08/22 10:28:05;;;;;;;2.87;2.50;;;;;;;;;;5108364;28;20207;-64
2021/08/22 10:30:42;;;;;;;3.30;2.60;;;;;;;;;;5108140;28;20211;-62
2021/08/22 10:33:17;;;;;;;5.50;2.40;;;;;;;;;;5107356;28;20291;-63
2021/08/22 10:35:47;;;;;;;8.47;7.50;;;;;;;;;;5107543;28;20221;-63
2021/08/22 10:38:25;;;;;;;3.23;2.93;;;;;;;;;;5107107;28;20273;-63
2021/08/22 10:40:54;;;;;;;4.97;2.60;;;;;;;;;;5107759;28;20225;-63
2021/08/22 10:43:40;;;;;;;2.50;2.30;;;;;;;;;;5106698;28;20319;-63
2021/08/22 10:46:09;;;;;;;4.23;2.50;;;;;;;;;;5107184;28;20255;-65
2021/08/22 10:48:47;;;;;;;2.57;2.37;;;;;;;;;;5103650;28;20286;-63
2021/08/22 10:51:16;;;;;;;3.80;2.40;;;;;;;;;;5110233;28;20628;-63
2021/08/22 10:53:47;;;;;;;2.77;2.20;;;;;;;;;;5107741;28;20230;-64
2021/08/22 10:56:45;;;;;;;2.87;2.40;;;;;;;;;;5104997;28;20740;-64
2021/08/22 10:59:13;;;;;;;4.20;2.50;;;;;;;;;;5060289;28;20284;-63
2021/08/22 11:01:42;;;;;;;6.43;3.30;;;;;;;;;;5097428;28;20242;-63
2021/08/22 11:04:12;;;;;;;3.60;2.90;;;;;;;;;;5104637;28;20276;-64
2021/08/22 11:06:54;;;;;;;3.40;2.27;;;;;;;;;;5107363;28;20308;-64
2021/08/22 11:09:39;;;;;;;5.40;2.60;;;;;;;;;;5098607;28;20538;-64
2021/08/22 11:12:22;;;;;;;3.50;3.00;;;;;;;;;;5098217;28;20258;-64
2021/08/22 11:14:50;;;;;;;2.77;2.50;;;;;;;;;;5106453;28;20691;-64
2021/08/22 11:17:18;;;;;;;3.60;2.47;;;;;;;;;;5098002;28;20229;-64
2021/08/22 11:19:46;;;;;;;4.00;3.60;;;;;;;;;;5098143;28;20227;-64
2021/08/22 11:22:26;;;;;;;2.83;2.60;;;;;;;;;;5098080;28;20206;-64
2021/08/22 11:24:56;;;;;;;8.70;6.83;;;;;;;;;;5103102;28;20220;-64
2021/08/22 11:27:24;;;;;;;19.37;13.73;;;;;;;;;;5106783;28;20208;-64
2021/08/22 11:29:53;;;;;;;36.03;24.40;;;;;;;;;;5106524;28;20256;-63
2021/08/22 11:32:21;;;;;;;5.87;4.07;;;;;;;;;;5106556;28;20205;-64
2021/08/22 11:34:49;;;;;;;4.47;2.90;;;;;;;;;;5101417;28;20311;-63
2021/08/22 11:37:17;;;;;;;3.20;2.60;;;;;;;;;;5099419;28;20273;-63
2021/08/22 11:39:47;;;;;;;2.30;2.10;;;;;;;;;;5099026;28;20215;-66
2021/08/22 11:42:19;;;;;;;2.37;2.03;;;;;;;;;;5099287;28;20244;-64
2021/08/22 11:44:47;;;;;;;3.73;2.00;;;;;;;;;;5098941;28;20321;-63
2021/08/22 11:47:15;;;;;;;3.93;2.37;;;;;;;;;;5103980;28;20733;-64
2021/08/22 11:49:43;;;;;;;2.73;1.87;;;;;;;;;;5108464;28;20195;-64
2021/08/22 11:52:12;;;;;;;4.67;3.07;;;;;;;;;;5106071;28;20265;-64
2021/08/22 11:54:40;;;;;;;24.87;12.03;;;;;;;;;;5105944;28;20222;-60
2021/08/22 11:57:18;;;;;;;21.27;11.43;;;;;;;;;;5105784;28;20195;-60
2021/08/22 11:59:57;;;;;;;8.23;4.07;;;;;;;;;;5105584;28;20193;-61
2021/08/22 12:02:26;;;;;;;12.07;7.50;;;;;;;;;;5105789;28;20197;-61
2021/08/22 12:05:12;;;;;;;24.13;13.43;;;;;;;;;;5115854;28;20221;-70
2021/08/22 12:07:40;;;;;;;11.50;6.67;;;;;;;;;;5097861;28;20289;-65
2021/08/22 12:10:09;;;;;;;9.17;4.43;;;;;;;;;;5097568;28;20655;-65
2021/08/22 12:12:43;;;;;;;2.33;2.13;;;;;;;;;;5118346;28;20858;-66
2021/08/22 12:15:12;;;;;;;3.17;1.80;;;;;;;;;;5118864;28;20316;-67
2021/08/22 12:17:40;;;;;;;4.17;3.33;;;;;;;;;;5118895;28;20247;-66
2021/08/22 12:20:17;;;;;;;2.10;2.00;;;;;;;;;;5118547;28;20328;-67
2021/08/22 12:23:00;;;;;;;3.20;1.90;;;;;;;;;;5118540;28;20209;-67
2021/08/22 12:25:28;;;;;;;1.57;1.47;;;;;;;;;;5111898;28;20308;-67
2021/08/22 12:28:17;;;;;;;2.60;1.90;;;;;;;;;;5098496;28;20295;-68
2021/08/22 12:30:47;;;;;;;8.90;4.77;;;;;;;;;;5107580;28;20237;-71
2021/08/22 12:33:27;;;;;;;10.07;6.20;;;;;;;;;;5118569;28;20202;-70
2021/08/22 12:36:01;;;;;;;10.03;6.23;;;;;;;;;;5118209;28;20238;-71
2021/08/22 12:38:33;;;;;;;6.53;3.83;;;;;;;;;;5118164;28;20204;-68
2021/08/22 12:41:16;;;;;;;6.33;4.03;;;;;;;;;;5106709;28;20209;-68
2021/08/22 12:43:46;;;;;;;3.47;2.70;;;;;;;;;;5096331;28;20223;-70
2021/08/22 12:46:14;;;;;;;5.77;3.60;;;;;;;;;;5096730;28;20311;-69
2021/08/22 12:48:43;;;;;;;4.40;3.50;;;;;;;;;;5102964;28;20208;-69
2021/08/22 12:51:11;;;;;;;2.13;1.83;;;;;;;;;;5104052;28;20259;-69
2021/08/22 12:53:39;;;;;;;3.70;2.50;;;;;;;;;;5107155;28;20284;-68
2021/08/22 12:56:07;;;;;;;4.50;2.87;;;;;;;;;;5099343;28;20204;-66
2021/08/22 12:58:35;;;;;;;2.90;2.50;;;;;;;;;;5098115;28;20207;-68
2021/08/22 13:01:05;;;;;;;4.90;3.23;;;;;;;;;;5097749;28;20206;-67
2021/08/22 13:03:33;;;;;;;2.20;1.90;;;;;;;;;;5097680;28;20202;-67
2021/08/22 13:06:01;;;;;;;1.87;1.70;;;;;;;;;;5104522;28;20250;-67
2021/08/22 13:08:30;;;;;;;2.77;1.73;;;;;;;;;;5117642;28;20207;-66
2021/08/22 13:10:58;;;;;;;1.90;1.67;;;;;;;;;;5117883;28;20299;-66
2021/08/22 13:13:26;;;;;;;2.47;2.00;;;;;;;;;;5117284;28;20293;-66
2021/08/22 13:15:54;;;;;;;3.33;2.57;;;;;;;;;;5096562;28;20307;-66
2021/08/22 13:18:23;;;;;;;1.90;1.80;;;;;;;;;;5096455;28;20203;-66
2021/08/22 13:20:51;;;;;;;2.30;2.03;;;;;;;;;;5096634;28;20759;-66
2021/08/22 13:23:19;;;;;;;2.30;2.10;;;;;;;;;;5097020;28;20215;-66
2021/08/22 13:25:47;;;;;;;3.23;1.83;;;;;;;;;;5103306;28;20285;-66
2021/08/22 13:28:15;;;;;;;3.53;1.80;;;;;;;;;;5097571;28;20213;-66
2021/08/22 13:30:44;;;;;;;2.43;2.00;;;;;;;;;;5097599;28;20217;-66
2021/08/22 13:33:12;;;;;;;2.40;1.90;;;;;;;;;;5097138;28;20214;-66
2021/08/22 13:35:42;;;;;;;2.20;2.00;;;;;;;;;;5097581;28;20236;-66
2021/08/22 13:38:10;;;;;;;3.30;2.10;;;;;;;;;;5097119;28;20667;-66
2021/08/22 13:40:37;;;;;;;2.50;1.80;;;;;;;;;;5097473;28;20286;-66
2021/08/22 13:43:05;;;;;;;2.30;1.80;;;;;;;;;;5099280;28;20569;-66
2021/08/22 13:45:33;;;;;;;3.13;1.80;;;;;;;;;;5101703;28;20230;-66
2021/08/22 13:48:02;;;;;;;1.87;1.77;;;;;;;;;;5106314;28;20559;-66
2021/08/22 13:50:30;;;;;;;2.23;1.87;;;;;;;;;;5108863;28;20210;-66
2021/08/22 13:53:01;;;;;;;5.10;2.80;;;;;;;;;;5100938;28;20285;-66
2021/08/22 13:55:31;;;;;;;2.40;2.20;;;;;;;;;;5101422;28;20289;-66
2021/08/22 13:57:59;;;;;;;3.07;2.30;;;;;;;;;;5108171;28;20203;-66
2021/08/22 14:00:27;;;;;;;2.23;1.87;;;;;;;;;;5121664;28;20207;-66
2021/08/22 14:02:55;;;;;;;2.00;1.57;;;;;;;;;;5121453;28;20708;-66
2021/08/22 14:05:24;;;;;;;1.90;1.70;;;;;;;;;;5121537;28;20231;-66
2021/08/22 14:07:53;;;;;;;2.20;2.00;;;;;;;;;;5121082;28;20228;-66
2021/08/22 14:10:22;;;;;;;1.70;1.60;;;;;;;;;;5121582;28;20209;-65
2021/08/22 14:12:50;;;;;;;1.57;1.40;;;;;;;;;;5121213;28;20690;-66
2021/08/22 14:15:19;;;;;;;1.83;1.63;;;;;;;;;;5120730;28;20232;-65
2021/08/22 14:17:51;;;;;;;1.77;1.50;;;;;;;;;;5121393;28;20203;-66
2021/08/22 14:20:19;;;;;;;2.07;1.90;;;;;;;;;;5121203;28;20321;-66
2021/08/22 14:22:49;;;;;;;1.63;1.40;;;;;;;;;;5121462;28;20211;-65
2021/08/22 14:25:18;;;;;;;3.60;1.93;;;;;;;;;;5116150;28;20252;-66
2021/08/22 14:27:48;;;;;;;1.43;1.30;;;;;;;;;;5100752;28;20290;-66
2021/08/22 14:30:16;;;;;;;2.43;1.90;;;;;;;;;;5100885;28;20207;-66
2021/08/22 14:32:44;;;;;;;2.20;2.00;;;;;;;;;;5100461;28;20738;-65
2021/08/22 14:35:12;;;;;;;3.67;1.90;;;;;;;;;;5100372;28;20739;-65
2021/08/22 14:37:40;;;;;;;2.27;2.07;;;;;;;;;;5100557;28;20285;-65
2021/08/22 14:40:09;;;;;;;1.97;1.70;;;;;;;;;;5100291;28;20202;-65
2021/08/22 14:42:37;;;;;;;1.80;1.53;;;;;;;;;;5100131;28;20233;-65
2021/08/22 14:45:07;;;;;;;3.07;1.60;;;;;;;;;;5100386;28;20234;-65
2021/08/22 14:47:35;;;;;;;1.87;1.70;;;;;;;;;;5101908;28;20229;-66
2021/08/22 14:50:03;;;;;;;2.50;1.70;;;;;;;;;;5111803;28;20291;-66
2021/08/22 14:52:32;;;;;;;2.10;1.90;;;;;;;;;;5100253;28;20212;-65
2021/08/22 14:55:00;;;;;;;1.93;1.57;;;;;;;;;;5099665;28;20311;-65
2021/08/22 14:57:28;;;;;;;1.73;1.40;;;;;;;;;;5100219;28;20212;-66
2021/08/22 14:59:56;;;;;;;1.43;1.33;;;;;;;;;;5099981;28;20633;-65